Time;durP1;ratioP1;P1;durP2;ratioP2;P2;SDS_P1;SDS_P2;PMS_P1;PMS_P2;Temp;Humidity;BMP_temperature;BMP_pressure;BME280_temperature;BME280_humidity;BME280_pressure;Samples;Min_cycle;Max_cycle;Signal;HPM_P1;HPM_P2
2021/07/23 00:00:43;;;;;;;9.50;3.02;;;;;;;17.75;70.73;101261.76;1703584;83;20963;-84
2021/07/23 00:03:10;;;;;;;8.23;3.20;;;;;;;17.76;70.47;101263.43;1692473;83;20931;-81
2021/07/23 00:05:37;;;;;;;7.80;2.70;;;;;;;17.76;70.22;101261.64;1693998;83;21561;-81
2021/07/23 00:08:06;;;;;;;5.15;2.33;;;;;;;17.77;70.01;101259.34;1693667;83;20866;-86
2021/07/23 00:10:35;;;;;;;3.77;2.15;;;;;;;17.81;69.83;101263.84;1697915;83;20892;-80
2021/07/23 00:13:01;;;;;;;6.25;2.42;;;;;;;17.84;69.52;101252.60;1699340;83;21423;-82
2021/07/23 00:15:29;;;;;;;8.70;2.40;;;;;;;17.88;69.44;101254.48;1696019;83;21007;-82
2021/07/23 00:17:56;;;;;;;3.87;2.05;;;;;;;17.90;69.17;101253.89;1694897;83;21097;-82
2021/07/23 00:20:23;;;;;;;4.47;2.20;;;;;;;17.90;68.96;101257.31;1699443;83;21559;-80
2021/07/23 00:22:49;;;;;;;3.77;2.42;;;;;;;17.92;68.57;101259.83;1694074;83;21188;-79
2021/07/23 00:25:16;;;;;;;3.85;2.35;;;;;;;17.92;68.39;101253.26;1696542;83;21067;-81
2021/07/23 00:27:43;;;;;;;8.93;2.05;;;;;;;17.91;68.32;101253.73;1696135;83;21468;-81
2021/07/23 00:30:11;;;;;;;6.60;2.37;;;;;;;17.90;68.20;101249.95;1696322;83;20937;-81
2021/07/23 00:32:39;;;;;;;6.50;2.35;;;;;;;17.90;68.37;101251.27;1707458;83;20959;-82
2021/07/23 00:35:06;;;;;;;8.35;2.62;;;;;;;17.90;68.26;101253.38;1692529;83;21103;-80
2021/07/23 00:37:35;;;;;;;3.83;2.12;;;;;;;17.90;68.12;101252.06;1694011;83;21461;-80
2021/07/23 00:40:02;;;;;;;3.67;1.98;;;;;;;17.89;68.13;101253.05;1701096;83;21194;-82
2021/07/23 00:42:42;;;;;;;4.55;2.08;;;;;;;17.88;68.07;101253.17;1696363;83;21498;-77
2021/07/23 00:45:10;;;;;;;4.97;1.80;;;;;;;17.85;68.05;101256.90;1670257;83;20971;-83
2021/07/23 00:47:37;;;;;;;6.03;1.85;;;;;;;17.83;68.15;101252.75;1693481;83;21112;-79
2021/07/23 00:50:07;;;;;;;5.40;2.42;;;;;;;17.82;67.90;101257.64;1700265;83;20917;-87
2021/07/23 00:52:34;;;;;;;6.20;2.30;;;;;;;17.81;67.90;101252.88;1697981;83;20915;-82
2021/07/23 00:55:02;;;;;;;5.45;2.10;;;;;;;17.81;67.97;101258.13;1695564;83;21437;-80
2021/07/23 00:57:29;;;;;;;5.30;2.50;;;;;;;17.78;68.05;101251.83;1661719;84;21067;-81
2021/07/23 00:59:55;;;;;;;6.37;2.55;;;;;;;17.78;68.09;101252.30;1690998;82;21098;-77
2021/07/23 01:02:22;;;;;;;4.47;1.65;;;;;;;17.80;68.19;101245.98;1664785;84;20924;-83
2021/07/23 01:04:50;;;;;;;7.03;2.00;;;;;;;17.81;68.11;101246.31;1667397;84;20963;-84
2021/07/23 01:07:17;;;;;;;6.42;1.85;;;;;;;17.83;68.11;101251.44;1698893;83;21482;-79
2021/07/23 01:09:44;;;;;;;3.15;1.92;;;;;;;17.86;68.11;101248.55;1694728;82;20959;-77
2021/07/23 01:12:14;;;;;;;5.28;2.27;;;;;;;17.87;68.04;101239.69;1703801;83;21119;-77
2021/07/23 01:14:42;;;;;;;3.42;2.02;;;;;;;17.88;67.99;101246.61;1701056;83;20996;-78
2021/07/23 01:19:48;;;;;;;3.40;1.80;;;;;;;17.88;68.11;101238.73;1819247;79;22882;-76
2021/07/23 01:22:15;;;;;;;4.15;1.87;;;;;;;17.81;68.25;101247.62;1792553;77;20899;-78
2021/07/23 01:24:42;;;;;;;6.03;1.75;;;;;;;17.82;68.23;101245.83;1792433;78;21110;-77
2021/07/23 01:27:09;;;;;;;3.55;1.75;;;;;;;17.82;68.33;101253.23;1762227;80;21466;-77
2021/07/23 01:29:41;;;;;;;9.60;1.90;;;;;;;17.81;68.41;101254.66;1791215;78;20876;-76
2021/07/23 01:32:09;;;;;;;3.30;1.95;;;;;;;17.80;68.34;101254.33;1762132;80;20915;-77
2021/07/23 01:34:38;;;;;;;4.40;1.70;;;;;;;17.76;68.55;101260.80;1791672;80;20966;-81
2021/07/23 01:37:06;;;;;;;4.28;1.82;;;;;;;17.72;68.64;101256.30;1792723;80;21073;-78
2021/07/23 01:39:33;;;;;;;4.75;1.92;;;;;;;17.70;68.72;101262.66;1762144;80;20936;-80
2021/07/23 01:42:00;;;;;;;6.03;2.00;;;;;;;17.69;68.92;101255.73;1792675;77;20951;-77
2021/07/23 01:44:29;;;;;;;4.42;2.52;;;;;;;17.69;68.97;101257.04;1759897;80;21062;-78
2021/07/23 01:46:57;;;;;;;5.30;1.80;;;;;;;17.67;68.94;101256.36;1757976;80;20987;-80
2021/07/23 01:49:24;;;;;;;3.75;2.00;;;;;;;17.66;68.96;101257.30;1788695;80;21154;-81
2021/07/23 01:51:51;;;;;;;3.00;1.82;;;;;;;17.65;68.95;101260.41;1788517;80;21064;-82
2021/07/23 01:54:20;;;;;;;3.62;1.98;;;;;;;17.64;69.09;101261.87;1783375;80;20935;-79
2021/07/23 01:56:48;;;;;;;4.92;2.35;;;;;;;17.61;69.19;101260.82;1788778;80;20979;-83
2021/07/23 01:59:17;;;;;;;2.37;1.70;;;;;;;17.55;69.50;101261.31;1788466;80;20884;-81
2021/07/23 02:01:44;;;;;;;3.87;1.75;;;;;;;17.51;69.74;101262.53;1788938;80;21148;-78
2021/07/23 02:04:21;;;;;;;5.25;2.42;;;;;;;17.45;69.93;101265.20;1786011;80;21080;-81
2021/07/23 02:06:48;;;;;;;3.55;2.30;;;;;;;17.40;70.17;101264.75;1788986;80;21533;-82
2021/07/23 02:09:15;;;;;;;8.83;2.05;;;;;;;17.38;70.45;101263.58;1788553;80;20983;-80
2021/07/23 02:11:57;;;;;;;3.70;2.00;;;;;;;17.35;70.57;101263.02;1788832;80;20907;-80
2021/07/23 02:14:29;;;;;;;5.30;2.45;;;;;;;17.30;70.80;101265.17;1788009;80;21233;-84
2021/07/23 02:16:57;;;;;;;5.62;2.27;;;;;;;17.28;70.93;101265.80;1789227;80;21046;-82
2021/07/23 02:19:25;;;;;;;4.37;2.00;;;;;;;17.25;71.07;101264.74;1745329;81;20920;-83
2021/07/23 02:22:11;;;;;;;5.62;1.75;;;;;;;17.23;71.15;101269.30;1766443;81;20960;-79
2021/07/23 02:24:37;;;;;;;3.20;1.80;;;;;;;17.18;71.30;101265.73;1742466;81;21537;-78
2021/07/23 02:27:04;;;;;;;4.95;1.95;;;;;;;17.16;71.43;101270.77;1767925;81;21484;-81
2021/07/23 02:29:32;;;;;;;3.98;2.00;;;;;;;17.12;71.51;101272.81;1767799;81;20884;-80
2021/07/23 02:31:59;;;;;;;10.20;2.37;;;;;;;17.07;71.56;101277.59;1739656;81;20944;-80
2021/07/23 02:34:29;;;;;;;7.35;2.05;;;;;;;17.04;71.71;101277.84;1767741;81;20976;-87
2021/07/23 02:36:55;;;;;;;7.53;1.98;;;;;;;17.03;71.83;101277.52;1739478;81;21003;-79
2021/07/23 02:39:28;;;;;;;5.75;2.10;;;;;;;17.01;71.91;101281.23;1767544;81;21141;-82
2021/07/23 02:41:54;;;;;;;6.43;1.97;;;;;;;17.01;72.05;101278.61;1767299;81;20996;-81
2021/07/23 02:44:22;;;;;;;4.60;2.40;;;;;;;16.98;72.12;101277.05;1767533;80;20932;-81
2021/07/23 02:46:48;;;;;;;4.25;2.10;;;;;;;16.98;72.27;101274.90;1767612;81;21554;-78
2021/07/23 02:49:17;;;;;;;3.75;2.05;;;;;;;16.96;72.36;101273.73;1767539;81;21554;-80
2021/07/23 02:51:44;;;;;;;6.30;1.82;;;;;;;16.93;72.53;101273.98;1767758;81;21407;-78
2021/07/23 02:54:11;;;;;;;3.85;1.90;;;;;;;16.91;72.75;101273.30;1767322;81;21035;-80
2021/07/23 02:56:44;;;;;;;8.88;2.60;;;;;;;16.91;72.79;101269.36;1767388;81;21491;-78
2021/07/23 02:59:11;;;;;;;3.47;2.20;;;;;;;16.90;72.82;101273.77;1766298;81;21079;-79
2021/07/23 03:01:38;;;;;;;3.37;2.22;;;;;;;16.89;72.92;101275.19;1767661;81;21003;-80
2021/07/23 03:04:07;;;;;;;2.98;1.70;;;;;;;16.85;73.04;101274.61;1767202;81;21152;-80
2021/07/23 03:06:36;;;;;;;5.45;2.20;;;;;;;16.82;73.11;101270.09;1766914;81;20995;-80
2021/07/23 03:09:03;;;;;;;3.47;1.87;;;;;;;16.80;73.23;101270.23;1767556;81;21102;-80
2021/07/23 03:11:35;;;;;;;6.25;2.30;;;;;;;16.82;73.28;101274.03;1768202;81;20923;-79
2021/07/23 03:14:05;;;;;;;3.58;1.98;;;;;;;16.82;73.36;101276.65;1771008;81;21000;-78
2021/07/23 03:16:35;;;;;;;6.00;2.72;;;;;;;16.85;73.42;101279.02;1770143;81;21149;-80
2021/07/23 03:19:01;;;;;;;4.78;2.10;;;;;;;16.84;73.47;101280.00;1774691;80;21017;-77
2021/07/23 03:21:29;;;;;;;2.80;1.98;;;;;;;16.82;73.50;101276.17;1755709;80;21015;-77
2021/07/23 03:23:58;;;;;;;3.65;2.10;;;;;;;16.85;73.60;101281.16;1775774;80;21015;-82
2021/07/23 03:26:26;;;;;;;4.60;1.75;;;;;;;16.87;73.57;101275.81;1774375;80;20971;-79
2021/07/23 03:28:55;;;;;;;5.72;2.02;;;;;;;16.89;73.45;101286.98;1775132;80;21077;-80
2021/07/23 03:31:28;;;;;;;5.87;2.30;;;;;;;16.90;73.34;101289.97;1775271;80;21403;-77
2021/07/23 03:33:58;;;;;;;6.28;2.45;;;;;;;16.90;73.45;101288.66;1774324;80;20928;-82
2021/07/23 03:36:28;;;;;;;5.10;2.08;;;;;;;16.93;73.47;101292.34;1771944;80;20975;-80
2021/07/23 03:38:56;;;;;;;4.08;1.92;;;;;;;16.95;73.54;101293.03;1774519;80;20951;-83
2021/07/23 03:41:23;;;;;;;6.12;2.05;;;;;;;16.97;73.54;101293.76;1774705;80;21139;-78
2021/07/23 03:43:52;;;;;;;6.50;2.05;;;;;;;17.03;73.45;101296.34;1773746;80;21279;-77
2021/07/23 03:46:21;;;;;;;9.23;2.50;;;;;;;17.08;73.18;101296.78;1772815;80;20983;-80
2021/07/23 03:48:53;;;;;;;8.15;2.20;;;;;;;17.15;73.13;101301.87;1774539;80;21004;-79
2021/07/23 03:51:19;;;;;;;4.15;1.90;;;;;;;17.21;72.82;101298.27;1772739;80;20924;-78
2021/07/23 03:53:47;;;;;;;3.47;1.95;;;;;;;17.28;72.61;101299.42;1774622;80;21906;-81
2021/07/23 03:56:15;;;;;;;4.33;2.20;;;;;;;17.35;72.46;101303.20;1770047;80;21018;-79
2021/07/23 03:58:44;;;;;;;3.90;1.70;;;;;;;17.41;72.29;101299.22;1774456;80;20972;-77
2021/07/23 04:01:13;;;;;;;4.90;2.60;;;;;;;17.50;72.22;101305.00;1774068;80;20978;-78
2021/07/23 04:03:41;;;;;;;4.95;2.17;;;;;;;17.57;72.09;101300.09;1774014;80;21039;-76
2021/07/23 04:06:11;;;;;;;6.90;2.30;;;;;;;17.63;71.93;101297.78;1774520;80;21510;-77
2021/07/23 04:08:41;;;;;;;7.17;1.90;;;;;;;17.69;71.82;101299.04;1774685;80;21517;-80
2021/07/23 04:11:16;;;;;;;4.08;2.10;;;;;;;17.74;71.71;101293.73;1752608;80;21050;-80
2021/07/23 04:13:44;;;;;;;5.92;2.22;;;;;;;17.81;71.60;101295.36;1774611;80;20936;-85
2021/07/23 04:16:12;;;;;;;5.87;1.82;;;;;;;17.92;71.55;101296.59;1774280;80;21474;-76
2021/07/23 04:18:40;;;;;;;5.12;2.08;;;;;;;18.04;71.13;101299.93;1776051;80;21152;-82
2021/07/23 04:21:25;;;;;;;5.08;2.00;;;;;;;18.16;70.52;101298.86;1782769;80;21006;-78
2021/07/23 04:23:52;;;;;;;6.45;2.00;;;;;;;18.26;70.25;101289.20;1782647;80;21019;-83
2021/07/23 04:26:22;;;;;;;9.33;2.15;;;;;;;18.33;70.17;101291.64;1752330;80;20994;-79
2021/07/23 04:28:50;;;;;;;4.58;1.90;;;;;;;18.42;69.59;101289.51;1782856;80;21038;-81
2021/07/23 04:31:18;;;;;;;7.28;2.08;;;;;;;18.49;69.46;101291.95;1782719;80;21816;-81
2021/07/23 04:33:48;;;;;;;4.67;2.27;;;;;;;18.56;68.85;101297.05;1780031;80;20892;-80
2021/07/23 04:36:22;;;;;;;4.00;1.77;;;;;;;18.63;68.50;101294.70;1734243;80;20892;-85
2021/07/23 04:38:49;;;;;;;2.72;2.05;;;;;;;18.68;67.95;101295.94;1782843;80;20983;-79
2021/07/23 04:41:17;;;;;;;4.33;1.95;;;;;;;18.75;67.70;101292.27;1752312;80;21584;-79
2021/07/23 04:43:49;;;;;;;11.57;2.40;;;;;;;18.82;66.89;101293.39;1783207;80;21873;-79
2021/07/23 04:46:16;;;;;;;9.03;1.90;;;;;;;18.87;66.96;101286.73;1783220;80;21478;-79
2021/07/23 04:48:43;;;;;;;2.42;1.90;;;;;;;18.91;66.00;101289.44;1783467;80;20916;-77
2021/07/23 04:51:24;;;;;;;4.78;1.98;;;;;;;18.93;65.93;101294.06;1780890;80;21016;-81
2021/07/23 04:53:59;;;;;;;7.10;2.40;;;;;;;18.95;66.21;101290.80;1734750;80;21030;-77
2021/07/23 04:56:46;;;;;;;5.15;1.85;;;;;;;18.99;66.13;101285.61;1782588;80;21149;-82
2021/07/23 04:59:14;;;;;;;7.70;2.15;;;;;;;19.11;66.40;101292.88;1782393;80;21292;-80
2021/07/23 05:01:42;;;;;;;3.37;1.77;;;;;;;19.21;66.20;101293.67;1782762;80;21451;-81
2021/07/23 05:04:09;;;;;;;5.25;2.20;;;;;;;19.37;65.60;101296.55;1782755;80;20982;-82
2021/07/23 05:06:38;;;;;;;6.10;2.25;;;;;;;19.55;64.76;101287.47;1782681;80;20956;-80
2021/07/23 05:09:06;;;;;;;6.12;2.33;;;;;;;19.74;64.72;101284.77;1782827;80;21154;-78
2021/07/23 05:11:35;;;;;;;6.08;2.22;;;;;;;19.90;64.37;101294.19;1782725;80;20990;-78
2021/07/23 05:14:02;;;;;;;7.28;2.72;;;;;;;20.00;64.08;101287.08;1782878;80;21544;-79
2021/07/23 05:16:29;;;;;;;2.92;2.12;;;;;;;20.06;63.24;101283.84;1782672;80;21454;-75
2021/07/23 05:18:56;;;;;;;4.85;2.45;;;;;;;20.13;61.89;101283.26;1782407;80;20979;-76
2021/07/23 05:21:23;;;;;;;5.10;2.15;;;;;;;20.16;61.29;101286.43;1782549;80;21422;-80
2021/07/23 05:23:51;;;;;;;6.10;2.20;;;;;;;20.22;61.10;101288.95;1782699;80;20931;-86
2021/07/23 05:26:17;;;;;;;2.83;1.92;;;;;;;20.29;59.76;101285.63;1752146;80;21058;-85
2021/07/23 05:28:45;;;;;;;8.68;3.00;;;;;;;20.37;59.02;101282.22;1782684;80;20983;-80
2021/07/23 05:31:12;;;;;;;8.90;2.75;;;;;;;20.40;58.96;101281.92;1782992;80;21545;-77
2021/07/23 05:33:38;;;;;;;7.03;2.62;;;;;;;20.43;59.16;101289.05;1782759;80;21507;-79
2021/07/23 05:36:05;;;;;;;10.00;2.55;;;;;;;20.47;59.49;101280.34;1782684;80;21019;-77
2021/07/23 05:38:32;;;;;;;6.22;2.42;;;;;;;20.52;59.54;101283.35;1782579;80;21023;-77
2021/07/23 05:41:08;;;;;;;7.72;2.42;;;;;;;20.60;59.40;101284.77;1782677;80;20935;-80
2021/07/23 05:43:35;;;;;;;5.62;2.72;;;;;;;20.68;59.77;101287.46;1782729;80;21026;-77
2021/07/23 05:46:06;;;;;;;7.12;2.83;;;;;;;20.85;60.04;101285.31;1782646;80;21478;-77
2021/07/23 05:48:37;;;;;;;9.35;3.33;;;;;;;21.06;58.82;101293.72;1782031;80;21540;-80
2021/07/23 05:51:06;;;;;;;10.15;3.50;;;;;;;21.06;58.82;101293.72;1782980;80;20861;-87
2021/07/23 05:53:35;;;;;;;9.78;2.92;;;;;;;21.15;58.04;101293.83;1782334;80;20950;-78
2021/07/23 05:56:02;;;;;;;5.33;2.95;;;;;;;21.24;57.71;101299.50;1783061;80;21553;-81
2021/07/23 05:58:31;;;;;;;8.08;2.95;;;;;;;21.33;57.67;101290.64;1784779;80;21166;-77
2021/07/23 06:00:57;;;;;;;21.30;3.58;;;;;;;21.43;57.84;101294.02;1784168;80;21715;-77
2021/07/23 06:03:24;;;;;;;9.00;4.50;;;;;;;21.52;57.85;101298.36;1782469;80;20935;-81
2021/07/23 06:05:53;;;;;;;11.12;4.35;;;;;;;21.59;56.83;101300.23;1782631;80;21594;-79
2021/07/23 06:08:20;;;;;;;9.65;4.30;;;;;;;21.63;57.69;101296.27;1782832;80;21466;-82
2021/07/23 06:10:49;;;;;;;9.08;3.98;;;;;;;21.70;57.16;101295.66;1782831;80;21211;-76
2021/07/23 06:13:15;;;;;;;9.68;3.40;;;;;;;21.78;57.48;101293.88;1782362;80;21010;-79
2021/07/23 06:15:42;;;;;;;15.68;4.05;;;;;;;21.84;57.31;101287.13;1782068;80;22278;-77
2021/07/23 06:18:09;;;;;;;10.53;2.95;;;;;;;21.92;56.80;101295.93;1782269;80;20987;-76
2021/07/23 06:20:38;;;;;;;6.67;2.83;;;;;;;21.99;56.38;101296.96;1783097;80;21399;-76
2021/07/23 06:23:05;;;;;;;6.47;2.80;;;;;;;22.02;55.99;101291.35;1762555;80;21188;-81
2021/07/23 06:25:32;;;;;;;7.15;2.60;;;;;;;22.08;54.89;101298.64;1781752;80;21074;-82
2021/07/23 06:28:00;;;;;;;12.40;2.85;;;;;;;22.14;54.66;101297.19;1781659;80;21093;-81
2021/07/23 06:30:28;;;;;;;5.08;2.37;;;;;;;22.20;53.68;101290.43;1782387;80;21730;-76
2021/07/23 06:32:55;;;;;;;7.00;2.83;;;;;;;22.26;52.87;101293.75;1781324;80;21102;-75
2021/07/23 06:35:23;;;;;;;5.75;2.83;;;;;;;22.32;53.08;101295.74;1780918;80;21081;-76
2021/07/23 06:37:51;;;;;;;8.63;3.22;;;;;;;22.34;53.59;101292.43;1784313;80;21042;-83
2021/07/23 06:40:18;;;;;;;7.10;3.05;;;;;;;22.37;53.83;101296.91;1784327;80;20998;-76
2021/07/23 06:42:47;;;;;;;7.35;3.85;;;;;;;22.44;53.30;101289.98;1781856;80;21018;-77
2021/07/23 06:45:15;;;;;;;6.80;3.10;;;;;;;22.51;53.46;101288.34;1782182;80;21078;-80
2021/07/23 06:47:49;;;;;;;6.92;3.50;;;;;;;22.56;53.10;101289.16;1781582;80;21112;-78
2021/07/23 06:50:16;;;;;;;6.37;2.40;;;;;;;22.62;53.17;101288.02;1782134;80;21651;-76
2021/07/23 06:52:43;;;;;;;6.25;3.05;;;;;;;22.70;51.92;101291.70;1772073;80;20975;-76
2021/07/23 06:55:10;;;;;;;6.50;3.08;;;;;;;22.77;51.90;101284.77;1782033;80;20991;-83
2021/07/23 06:57:37;;;;;;;6.20;2.58;;;;;;;22.83;51.94;101284.09;1781141;80;21110;-78
2021/07/23 07:00:06;;;;;;;5.95;3.40;;;;;;;22.90;51.30;101281.95;1781258;80;21121;-77
2021/07/23 07:02:35;;;;;;;5.33;2.37;;;;;;;23.03;49.94;101280.96;1781029;80;20998;-83
2021/07/23 07:05:02;;;;;;;6.10;3.20;;;;;;;23.13;48.67;101278.94;1781271;80;21059;-79
2021/07/23 07:07:29;;;;;;;7.62;3.98;;;;;;;23.22;48.28;101275.80;1781179;80;21045;-78
2021/07/23 07:09:58;;;;;;;4.45;2.75;;;;;;;23.28;47.82;101277.78;1781435;80;21011;-75
2021/07/23 07:12:25;;;;;;;4.78;3.27;;;;;;;23.33;47.61;101272.78;1782748;80;21149;-81
2021/07/23 07:14:52;;;;;;;4.50;2.75;;;;;;;23.37;48.20;101274.61;1782301;80;21003;-76
2021/07/23 07:17:20;;;;;;;8.95;2.72;;;;;;;23.45;47.59;101268.01;1781248;80;21072;-76
2021/07/23 07:19:49;;;;;;;9.83;2.70;;;;;;;23.51;47.72;101268.65;1780695;80;21078;-79
2021/07/23 07:22:17;;;;;;;5.72;2.25;;;;;;;23.56;47.55;101265.81;1780906;80;21070;-78
2021/07/23 07:24:49;;;;;;;2.75;2.42;;;;;;;23.63;47.41;101265.95;1782360;80;21159;-81
2021/07/23 07:27:16;;;;;;;5.10;2.50;;;;;;;23.66;45.99;101269.09;1780886;80;21628;-83
2021/07/23 07:29:47;;;;;;;7.70;2.50;;;;;;;23.69;45.56;101261.30;1784340;80;21017;-87
2021/07/23 07:32:14;;;;;;;6.60;2.65;;;;;;;23.75;45.21;101264.58;1782805;80;21066;-79
2021/07/23 07:34:41;;;;;;;5.85;2.65;;;;;;;23.82;46.27;101260.73;1781670;80;21050;-76
2021/07/23 07:37:07;;;;;;;4.22;2.80;;;;;;;23.84;45.35;101260.89;1781135;80;21307;-82
2021/07/23 07:39:34;;;;;;;6.75;2.40;;;;;;;23.79;44.80;101261.92;1782139;80;21026;-77
2021/07/23 07:42:02;;;;;;;6.50;2.37;;;;;;;23.74;45.11;101263.44;1781362;80;21022;-78
2021/07/23 07:44:29;;;;;;;7.47;2.50;;;;;;;23.73;44.77;101261.78;1750591;80;21090;-78
2021/07/23 07:46:56;;;;;;;4.30;2.15;;;;;;;23.73;45.29;101266.59;1781129;80;21085;-79
2021/07/23 07:49:27;;;;;;;7.87;2.70;;;;;;;23.78;45.52;101258.09;1781438;80;21092;-79
2021/07/23 07:51:54;;;;;;;6.30;2.47;;;;;;;23.83;45.33;101263.23;1780813;80;21043;-79
2021/07/23 07:54:21;;;;;;;3.25;1.90;;;;;;;23.88;44.56;101270.16;1781331;80;21570;-85
2021/07/23 07:56:49;;;;;;;4.22;2.40;;;;;;;23.91;44.35;101267.16;1780704;80;21322;-77
2021/07/23 07:59:16;;;;;;;6.45;2.12;;;;;;;23.97;43.91;101260.33;1781194;80;21114;-85
2021/07/23 08:01:43;;;;;;;6.15;2.50;;;;;;;24.10;43.87;101268.55;1781296;80;21526;-82
2021/07/23 08:04:13;;;;;;;3.35;2.35;;;;;;;24.26;42.97;101260.53;1782188;80;21042;-85
2021/07/23 08:06:42;;;;;;;9.20;2.10;;;;;;;24.36;42.38;101259.81;1782638;80;21018;-80
2021/07/23 08:09:14;;;;;;;4.55;2.47;;;;;;;24.46;42.31;101263.56;1781097;80;21628;-78
2021/07/23 08:11:42;;;;;;;3.22;2.10;;;;;;;24.52;40.71;101262.84;1773515;80;21070;-82
2021/07/23 08:14:09;;;;;;;3.70;2.20;;;;;;;24.49;39.77;101267.19;1773072;80;21600;-82
2021/07/23 08:16:35;;;;;;;6.12;1.85;;;;;;;24.39;39.72;101260.78;1772558;80;20956;-83
2021/07/23 08:19:02;;;;;;;10.85;3.22;;;;;;;24.37;40.80;101257.98;1772990;80;20943;-80
2021/07/23 08:21:31;;;;;;;3.12;1.70;;;;;;;24.38;41.27;101264.95;1767531;80;21047;-83
2021/07/23 08:24:02;;;;;;;4.28;1.90;;;;;;;24.48;41.29;101264.20;1732678;81;21137;-78
2021/07/23 08:26:29;;;;;;;6.60;2.22;;;;;;;24.60;41.72;101260.16;1766709;81;21318;-76
2021/07/23 08:28:55;;;;;;;5.72;2.27;;;;;;;24.77;41.96;101261.66;1765726;81;21569;-76
2021/07/23 08:31:22;;;;;;;5.08;2.65;;;;;;;24.89;41.84;101256.79;1765932;81;20951;-76
2021/07/23 08:33:49;;;;;;;7.22;1.90;;;;;;;25.02;41.78;101254.31;1765995;81;20959;-82
2021/07/23 08:36:17;;;;;;;5.72;1.98;;;;;;;25.14;41.50;101256.35;1766110;80;21644;-79
2021/07/23 08:38:45;;;;;;;7.60;2.30;;;;;;;25.22;41.07;101256.28;1765942;81;21115;-80
2021/07/23 08:41:13;;;;;;;5.05;2.00;;;;;;;25.31;40.73;101258.84;1766241;81;21338;-79
2021/07/23 08:43:40;;;;;;;3.40;1.90;;;;;;;25.32;39.87;101260.50;1766529;81;21053;-82
2021/07/23 08:46:08;;;;;;;6.08;1.90;;;;;;;25.32;39.64;101261.83;1766379;81;21502;-79
2021/07/23 08:48:35;;;;;;;5.80;2.20;;;;;;;25.31;39.15;101253.53;1766093;81;21120;-82
2021/07/23 08:51:02;;;;;;;3.05;1.80;;;;;;;25.39;39.75;101252.95;1766049;81;21058;-82
2021/07/23 08:53:29;;;;;;;4.05;1.80;;;;;;;25.52;39.63;101253.17;1765953;81;21039;-78
2021/07/23 08:55:57;;;;;;;2.10;1.47;;;;;;;25.61;39.11;101249.41;1766019;81;21011;-77
2021/07/23 08:58:24;;;;;;;4.22;2.00;;;;;;;25.61;37.83;101251.23;1765848;81;21724;-87
2021/07/23 09:00:58;;;;;;;3.83;2.12;;;;;;;25.51;38.39;101246.20;1765884;81;21537;-79
2021/07/23 09:03:33;;;;;;;2.98;1.75;;;;;;;25.52;39.65;101242.55;1766786;81;21969;-80
2021/07/23 09:05:58;;;;;;;8.35;3.05;;;;;;;25.68;39.10;101246.84;1765644;81;21501;-80
2021/07/23 09:08:25;;;;;;;7.20;2.10;;;;;;;25.86;38.20;101249.09;1765749;81;21550;-83
2021/07/23 09:11:05;;;;;;;6.83;2.27;;;;;;;26.01;37.70;101247.21;1766234;81;21817;-81
2021/07/23 09:13:34;;;;;;;2.80;1.92;;;;;;;26.03;37.77;101243.37;1766838;81;21075;-80
2021/07/23 09:16:03;;;;;;;5.37;2.17;;;;;;;25.93;36.78;101245.50;1766891;81;21030;-79
2021/07/23 09:18:41;;;;;;;5.40;2.12;;;;;;;25.82;36.77;101243.31;1766770;81;20967;-78
2021/07/23 09:21:05;;;;;;;5.25;1.87;;;;;;;25.79;36.78;101241.03;1770857;80;21061;-80
2021/07/23 09:23:36;;;;;;;4.08;1.62;;;;;;;25.70;36.78;101243.47;1771627;80;21022;-79
2021/07/23 09:26:16;;;;;;;4.55;1.85;;;;;;;25.67;37.71;101235.88;1770381;80;21117;-78
2021/07/23 09:28:47;;;;;;;5.47;1.90;;;;;;;25.74;36.64;101233.63;1770839;80;21133;-77
2021/07/23 09:31:24;;;;;;;6.05;2.00;;;;;;;25.78;36.78;101226.91;1771219;79;21054;-83
2021/07/23 09:33:55;;;;;;;9.25;1.95;;;;;;;25.85;36.90;101229.64;1771002;80;20987;-78
2021/07/23 09:36:22;;;;;;;5.20;1.60;;;;;;;25.85;36.77;101234.95;1771257;81;20995;-82
2021/07/23 09:38:49;;;;;;;3.75;1.72;;;;;;;25.91;37.00;101229.42;1771079;80;21605;-81
2021/07/23 09:41:26;;;;;;;1.62;1.42;;;;;;;26.01;35.43;101227.27;1770567;81;21092;-83
2021/07/23 09:44:04;;;;;;;10.90;2.35;;;;;;;26.09;35.89;101224.00;1770665;81;21073;-81
2021/07/23 09:46:35;;;;;;;3.22;1.95;;;;;;;26.25;37.85;101218.97;1770734;80;21046;-84
2021/07/23 09:49:22;;;;;;;3.98;2.00;;;;;;;26.43;35.36;101217.19;1770716;81;21002;-80
2021/07/23 09:51:49;;;;;;;3.65;1.70;;;;;;;26.42;35.70;101220.34;1770678;80;21643;-83
2021/07/23 09:54:20;;;;;;;5.15;1.85;;;;;;;26.43;34.96;101218.52;1770841;81;21143;-87
2021/07/23 09:56:49;;;;;;;7.55;2.20;;;;;;;26.37;34.82;101219.28;1771837;81;21014;-80
2021/07/23 09:59:40;;;;;;;3.67;1.95;;;;;;;26.34;35.84;101224.48;1770886;81;20971;-81
2021/07/23 10:02:12;;;;;;;4.45;2.05;;;;;;;26.31;35.63;101219.55;1770845;81;21577;-79
2021/07/23 10:04:53;;;;;;;10.55;1.70;;;;;;;26.48;35.72;101210.80;1770079;80;21102;-79
2021/07/23 10:07:20;;;;;;;6.00;1.65;;;;;;;27.60;34.63;101213.22;1746445;81;21872;-80
2021/07/23 10:09:48;;;;;;;3.77;1.70;;;;;;;28.78;32.64;101212.16;1770149;81;20978;-78
2021/07/23 10:12:16;;;;;;;4.42;1.52;;;;;;;29.00;31.06;101211.94;1770766;80;21077;-79
2021/07/23 10:14:46;;;;;;;5.65;1.80;;;;;;;28.57;31.35;101214.19;1770782;80;20992;-79
2021/07/23 10:17:13;;;;;;;6.60;2.05;;;;;;;28.63;31.76;101213.37;1771264;81;21660;-78
2021/07/23 10:19:40;;;;;;;5.62;1.80;;;;;;;29.45;31.25;101215.05;1770512;80;21149;-79
2021/07/23 10:22:11;;;;;;;4.05;1.60;;;;;;;29.73;29.96;101213.39;1777040;80;21117;-84
2021/07/23 10:24:38;;;;;;;7.07;1.73;;;;;;;29.32;30.13;101210.54;1776540;79;21010;-82
2021/07/23 10:27:10;;;;;;;2.40;1.37;;;;;;;29.10;31.36;101213.14;1776542;80;21481;-85
2021/07/23 10:29:47;;;;;;;5.87;1.75;;;;;;;28.95;32.01;101208.55;1776528;80;21112;-77
2021/07/23 10:32:31;;;;;;;5.40;1.80;;;;;;;28.92;32.30;101206.29;1776083;80;21085;-76
2021/07/23 10:35:20;;;;;;;13.05;7.72;;;;;;;28.97;32.21;101209.69;1777783;80;21043;-84
2021/07/23 10:37:51;;;;;;;12.30;6.92;;;;;;;28.82;31.04;101206.72;1776338;80;21045;-89
2021/07/23 10:40:24;;;;;;;4.17;1.77;;;;;;;28.61;32.29;101196.23;1776998;80;21086;-77
2021/07/23 10:42:53;;;;;;;5.33;2.08;;;;;;;28.34;31.03;101194.56;1776536;80;21105;-83
2021/07/23 10:45:20;;;;;;;5.50;1.52;;;;;;;28.07;32.42;101197.72;1776704;80;21146;-76
2021/07/23 10:47:51;;;;;;;4.10;1.77;;;;;;;27.99;33.80;101189.03;1776229;80;20962;-83
2021/07/23 10:50:31;;;;;;;5.03;1.95;;;;;;;28.09;33.53;101192.17;1776348;79;20952;-87
2021/07/23 10:53:33;;;;;;;;;;;;;;;28.10;32.50;101187.98;1776086;80;21034;-82
2021/07/23 10:56:00;;;;;;;6.65;1.72;;;;;;;28.06;32.49;101189.91;1776475;80;20241;-82
2021/07/23 10:58:30;;;;;;;7.08;2.00;;;;;;;27.94;32.17;101187.50;1776831;80;21085;-81
2021/07/23 11:01:02;;;;;;;10.80;2.42;;;;;;;27.91;33.03;101191.91;1778552;80;20887;-78
2021/07/23 11:03:43;;;;;;;5.87;1.90;;;;;;;28.01;33.56;101189.67;1780988;80;21002;-78
2021/07/23 11:06:41;;;;;;;2.95;1.70;;;;;;;28.24;33.28;101188.83;1781599;78;20896;-80
2021/07/23 11:09:11;;;;;;;4.83;1.95;;;;;;;28.36;31.92;101187.19;1780078;80;21019;-83
2021/07/23 11:11:37;;;;;;;10.78;1.62;;;;;;;28.29;32.42;101181.02;1725009;80;22200;-77
2021/07/23 11:14:18;;;;;;;4.58;2.02;;;;;;;28.15;32.31;101178.84;1778088;80;20907;-81
2021/07/23 11:16:46;;;;;;;3.67;1.62;;;;;;;28.06;32.96;101181.90;1777695;80;21037;-85
2021/07/23 11:19:18;;;;;;;4.05;1.57;;;;;;;27.91;33.33;101179.89;1776866;80;21025;-80
2021/07/23 11:21:45;;;;;;;3.92;1.55;;;;;;;27.93;32.76;101176.50;1772729;79;21058;-84
2021/07/23 11:24:13;;;;;;;5.00;1.77;;;;;;;28.00;31.91;101172.02;1770881;81;21132;-80
2021/07/23 11:26:53;;;;;;;6.50;1.92;;;;;;;28.06;32.85;101168.56;1771307;81;21038;-79
2021/07/23 11:29:41;;;;;;;5.47;1.70;;;;;;;28.12;33.22;101173.08;1770976;81;21003;-84
2021/07/23 11:32:09;;;;;;;3.33;1.77;;;;;;;28.20;33.65;101166.23;1770950;81;20908;-80
2021/07/23 11:34:41;;;;;;;4.33;2.22;;;;;;;28.19;32.65;101164.07;1770878;81;21030;-83
2021/07/23 11:37:26;;;;;;;4.75;1.77;;;;;;;28.33;31.70;101164.91;1771473;81;21167;-78